sensor_id;sensor_type;location;lat;lon;timestamp;P1;durP1;ratioP1;P2;durP2;ratioP2
3726;SDS011;1879;45.876;12.300;2023-06-26T00:00:25;4.97;;;4.50;;
3726;SDS011;1879;45.876;12.300;2023-06-26T00:02:52;5.53;;;4.30;;
3726;SDS011;1879;45.876;12.300;2023-06-26T00:05:19;5.63;;;4.17;;
3726;SDS011;1879;45.876;12.300;2023-06-26T00:07:48;4.53;;;4.13;;
3726;SDS011;1879;45.876;12.300;2023-06-26T00:10:15;6.50;;;4.80;;
3726;SDS011;1879;45.876;12.300;2023-06-26T00:12:42;5.20;;;4.70;;
3726;SDS011;1879;45.876;12.300;2023-06-26T00:15:09;4.40;;;4.00;;
3726;SDS011;1879;45.876;12.300;2023-06-26T00:17:37;6.13;;;4.50;;
3726;SDS011;1879;45.876;12.300;2023-06-26T00:20:04;5.00;;;4.50;;
3726;SDS011;1879;45.876;12.300;2023-06-26T00:22:34;5.10;;;4.60;;
3726;SDS011;1879;45.876;12.300;2023-06-26T00:25:02;4.70;;;4.30;;
3726;SDS011;1879;45.876;12.300;2023-06-26T00:27:30;4.70;;;4.30;;
3726;SDS011;1879;45.876;12.300;2023-06-26T00:29:57;5.00;;;4.60;;
3726;SDS011;1879;45.876;12.300;2023-06-26T00:32:24;8.47;;;5.00;;
3726;SDS011;1879;45.876;12.300;2023-06-26T00:34:51;4.63;;;4.17;;
3726;SDS011;1879;45.876;12.300;2023-06-26T00:37:18;5.90;;;5.30;;
3726;SDS011;1879;45.876;12.300;2023-06-26T00:39:47;6.23;;;5.63;;
3726;SDS011;1879;45.876;12.300;2023-06-26T00:42:15;5.20;;;4.70;;
3726;SDS011;1879;45.876;12.300;2023-06-26T00:44:42;7.60;;;5.23;;
3726;SDS011;1879;45.876;12.300;2023-06-26T00:47:09;5.47;;;4.97;;
3726;SDS011;1879;45.876;12.300;2023-06-26T00:49:40;5.77;;;5.20;;
3726;SDS011;1879;45.876;12.300;2023-06-26T00:52:07;5.70;;;5.20;;
3726;SDS011;1879;45.876;12.300;2023-06-26T00:54:35;6.23;;;5.60;;
3726;SDS011;1879;45.876;12.300;2023-06-26T00:57:02;6.93;;;5.20;;
3726;SDS011;1879;45.876;12.300;2023-06-26T00:59:31;7.83;;;5.67;;
3726;SDS011;1879;45.876;12.300;2023-06-26T01:01:58;6.60;;;5.43;;
3726;SDS011;1879;45.876;12.300;2023-06-26T01:04:25;6.57;;;5.90;;
3726;SDS011;1879;45.876;12.300;2023-06-26T01:06:57;8.50;;;5.50;;
3726;SDS011;1879;45.876;12.300;2023-06-26T01:09:25;8.10;;;5.93;;
3726;SDS011;1879;45.876;12.300;2023-06-26T01:11:53;8.63;;;6.30;;
3726;SDS011;1879;45.876;12.300;2023-06-26T01:14:20;6.90;;;6.20;;
3726;SDS011;1879;45.876;12.300;2023-06-26T01:16:48;6.90;;;6.03;;
3726;SDS011;1879;45.876;12.300;2023-06-26T01:19:18;5.63;;;5.07;;
3726;SDS011;1879;45.876;12.300;2023-06-26T01:21:50;6.40;;;5.80;;
3726;SDS011;1879;45.876;12.300;2023-06-26T01:24:23;6.40;;;5.90;;
3726;SDS011;1879;45.876;12.300;2023-06-26T01:26:58;6.90;;;6.20;;
3726;SDS011;1879;45.876;12.300;2023-06-26T01:29:28;6.60;;;5.70;;
3726;SDS011;1879;45.876;12.300;2023-06-26T01:31:56;7.23;;;6.57;;
3726;SDS011;1879;45.876;12.300;2023-06-26T01:34:23;9.73;;;6.90;;
3726;SDS011;1879;45.876;12.300;2023-06-26T01:36:50;6.23;;;5.63;;
3726;SDS011;1879;45.876;12.300;2023-06-26T01:39:18;7.10;;;6.40;;
3726;SDS011;1879;45.876;12.300;2023-06-26T01:41:45;7.87;;;6.77;;
3726;SDS011;1879;45.876;12.300;2023-06-26T01:44:17;8.60;;;6.40;;
3726;SDS011;1879;45.876;12.300;2023-06-26T01:46:54;6.23;;;5.63;;
3726;SDS011;1879;45.876;12.300;2023-06-26T01:49:28;7.23;;;6.53;;
3726;SDS011;1879;45.876;12.300;2023-06-26T01:52:18;11.60;;;6.73;;
3726;SDS011;1879;45.876;12.300;2023-06-26T01:54:50;7.93;;;6.23;;
3726;SDS011;1879;45.876;12.300;2023-06-26T01:57:21;12.13;;;6.93;;
3726;SDS011;1879;45.876;12.300;2023-06-26T01:59:54;8.23;;;6.77;;
3726;SDS011;1879;45.876;12.300;2023-06-26T02:02:23;7.63;;;6.50;;
3726;SDS011;1879;45.876;12.300;2023-06-26T02:04:51;7.50;;;6.80;;
3726;SDS011;1879;45.876;12.300;2023-06-26T02:07:18;7.63;;;6.93;;
3726;SDS011;1879;45.876;12.300;2023-06-26T02:09:45;8.50;;;7.80;;
3726;SDS011;1879;45.876;12.300;2023-06-26T02:12:12;9.17;;;7.70;;
3726;SDS011;1879;45.876;12.300;2023-06-26T02:14:39;8.20;;;7.40;;
3726;SDS011;1879;45.876;12.300;2023-06-26T02:17:08;7.57;;;6.77;;
3726;SDS011;1879;45.876;12.300;2023-06-26T02:19:35;8.80;;;7.90;;
3726;SDS011;1879;45.876;12.300;2023-06-26T02:22:10;8.47;;;7.33;;
3726;SDS011;1879;45.876;12.300;2023-06-26T02:24:37;7.97;;;7.13;;
3726;SDS011;1879;45.876;12.300;2023-06-26T02:27:04;8.20;;;7.40;;
3726;SDS011;1879;45.876;12.300;2023-06-26T02:29:31;7.93;;;7.23;;
3726;SDS011;1879;45.876;12.300;2023-06-26T02:31:58;7.87;;;7.20;;
3726;SDS011;1879;45.876;12.300;2023-06-26T02:34:26;8.53;;;7.07;;
3726;SDS011;1879;45.876;12.300;2023-06-26T02:36:53;10.30;;;8.37;;
3726;SDS011;1879;45.876;12.300;2023-06-26T02:39:21;8.40;;;7.70;;
3726;SDS011;1879;45.876;12.300;2023-06-26T02:41:48;9.23;;;8.43;;
3726;SDS011;1879;45.876;12.300;2023-06-26T02:44:15;9.37;;;8.47;;
3726;SDS011;1879;45.876;12.300;2023-06-26T02:46:42;9.53;;;7.83;;
3726;SDS011;1879;45.876;12.300;2023-06-26T02:49:09;10.47;;;8.37;;
3726;SDS011;1879;45.876;12.300;2023-06-26T02:51:38;8.40;;;7.60;;
3726;SDS011;1879;45.876;12.300;2023-06-26T02:54:05;7.73;;;7.00;;
3726;SDS011;1879;45.876;12.300;2023-06-26T02:56:32;7.13;;;6.47;;
3726;SDS011;1879;45.876;12.300;2023-06-26T02:58:59;7.70;;;7.00;;
3726;SDS011;1879;45.876;12.300;2023-06-26T03:01:26;6.90;;;6.30;;
3726;SDS011;1879;45.876;12.300;2023-06-26T03:03:53;7.60;;;6.67;;
3726;SDS011;1879;45.876;12.300;2023-06-26T03:06:20;7.27;;;6.57;;
3726;SDS011;1879;45.876;12.300;2023-06-26T03:08:49;9.80;;;6.67;;
3726;SDS011;1879;45.876;12.300;2023-06-26T03:11:15;7.87;;;7.07;;
3726;SDS011;1879;45.876;12.300;2023-06-26T03:13:43;8.20;;;6.83;;
3726;SDS011;1879;45.876;12.300;2023-06-26T03:16:10;7.47;;;5.90;;
3726;SDS011;1879;45.876;12.300;2023-06-26T03:18:37;6.73;;;6.13;;
3726;SDS011;1879;45.876;12.300;2023-06-26T03:21:04;6.63;;;6.03;;
3726;SDS011;1879;45.876;12.300;2023-06-26T03:23:31;7.53;;;6.83;;
3726;SDS011;1879;45.876;12.300;2023-06-26T03:25:59;7.20;;;6.60;;
3726;SDS011;1879;45.876;12.300;2023-06-26T03:28:26;8.13;;;7.40;;
3726;SDS011;1879;45.876;12.300;2023-06-26T03:30:53;10.90;;;6.90;;
3726;SDS011;1879;45.876;12.300;2023-06-26T03:33:20;12.80;;;7.30;;
3726;SDS011;1879;45.876;12.300;2023-06-26T03:35:47;8.30;;;7.10;;
3726;SDS011;1879;45.876;12.300;2023-06-26T03:38:14;7.97;;;6.37;;
3726;SDS011;1879;45.876;12.300;2023-06-26T03:40:41;11.13;;;6.37;;
3726;SDS011;1879;45.876;12.300;2023-06-26T03:43:10;6.73;;;5.97;;
3726;SDS011;1879;45.876;12.300;2023-06-26T03:45:37;8.30;;;5.67;;
3726;SDS011;1879;45.876;12.300;2023-06-26T03:48:04;7.03;;;5.50;;
3726;SDS011;1879;45.876;12.300;2023-06-26T03:50:33;6.20;;;5.60;;
3726;SDS011;1879;45.876;12.300;2023-06-26T03:53:00;6.73;;;5.73;;
3726;SDS011;1879;45.876;12.300;2023-06-26T03:55:27;9.57;;;5.43;;
3726;SDS011;1879;45.876;12.300;2023-06-26T03:57:54;6.47;;;5.87;;
3726;SDS011;1879;45.876;12.300;2023-06-26T04:00:22;6.17;;;5.67;;
3726;SDS011;1879;45.876;12.300;2023-06-26T04:02:49;6.23;;;5.63;;
3726;SDS011;1879;45.876;12.300;2023-06-26T04:05:16;5.53;;;5.03;;
3726;SDS011;1879;45.876;12.300;2023-06-26T04:07:43;6.77;;;6.17;;
3726;SDS011;1879;45.876;12.300;2023-06-26T04:10:11;5.93;;;5.43;;
3726;SDS011;1879;45.876;12.300;2023-06-26T04:12:38;9.50;;;5.60;;
3726;SDS011;1879;45.876;12.300;2023-06-26T04:15:06;7.47;;;6.23;;
3726;SDS011;1879;45.876;12.300;2023-06-26T04:17:35;5.83;;;5.23;;
3726;SDS011;1879;45.876;12.300;2023-06-26T04:20:02;7.00;;;5.80;;
3726;SDS011;1879;45.876;12.300;2023-06-26T04:22:31;7.40;;;6.17;;
3726;SDS011;1879;45.876;12.300;2023-06-26T04:24:58;5.87;;;5.03;;
3726;SDS011;1879;45.876;12.300;2023-06-26T04:27:26;7.43;;;5.83;;
3726;SDS011;1879;45.876;12.300;2023-06-26T04:29:53;9.23;;;5.73;;
3726;SDS011;1879;45.876;12.300;2023-06-26T04:32:20;6.27;;;5.67;;
3726;SDS011;1879;45.876;12.300;2023-06-26T04:34:49;8.70;;;5.27;;
3726;SDS011;1879;45.876;12.300;2023-06-26T04:37:16;6.03;;;5.43;;
3726;SDS011;1879;45.876;12.300;2023-06-26T04:39:43;7.20;;;5.67;;
3726;SDS011;1879;45.876;12.300;2023-06-26T04:42:10;6.23;;;5.73;;
3726;SDS011;1879;45.876;12.300;2023-06-26T04:44:37;6.50;;;5.90;;
3726;SDS011;1879;45.876;12.300;2023-06-26T04:47:06;6.60;;;5.93;;
3726;SDS011;1879;45.876;12.300;2023-06-26T04:49:33;7.97;;;6.93;;
3726;SDS011;1879;45.876;12.300;2023-06-26T04:52:01;10.90;;;6.63;;
3726;SDS011;1879;45.876;12.300;2023-06-26T04:54:28;6.73;;;6.00;;
3726;SDS011;1879;45.876;12.300;2023-06-26T04:56:55;6.60;;;6.00;;
3726;SDS011;1879;45.876;12.300;2023-06-26T04:59:22;6.90;;;5.27;;
3726;SDS011;1879;45.876;12.300;2023-06-26T05:01:49;6.30;;;5.70;;
3726;SDS011;1879;45.876;12.300;2023-06-26T05:04:16;7.60;;;5.90;;
3726;SDS011;1879;45.876;12.300;2023-06-26T05:06:43;6.27;;;5.63;;
3726;SDS011;1879;45.876;12.300;2023-06-26T05:09:12;6.20;;;5.60;;
3726;SDS011;1879;45.876;12.300;2023-06-26T05:11:39;5.73;;;5.13;;
3726;SDS011;1879;45.876;12.300;2023-06-26T05:14:06;9.13;;;6.07;;
3726;SDS011;1879;45.876;12.300;2023-06-26T05:16:34;6.33;;;5.70;;
3726;SDS011;1879;45.876;12.300;2023-06-26T05:19:01;5.97;;;5.43;;
3726;SDS011;1879;45.876;12.300;2023-06-26T05:21:29;5.70;;;5.20;;
3726;SDS011;1879;45.876;12.300;2023-06-26T05:23:56;7.00;;;6.33;;
3726;SDS011;1879;45.876;12.300;2023-06-26T05:26:26;7.53;;;6.70;;
3726;SDS011;1879;45.876;12.300;2023-06-26T05:28:54;6.73;;;5.87;;
3726;SDS011;1879;45.876;12.300;2023-06-26T05:31:21;6.83;;;6.10;;
3726;SDS011;1879;45.876;12.300;2023-06-26T05:33:49;6.77;;;6.13;;
3726;SDS011;1879;45.876;12.300;2023-06-26T05:36:17;8.67;;;6.67;;
3726;SDS011;1879;45.876;12.300;2023-06-26T05:38:45;8.63;;;6.40;;
3726;SDS011;1879;45.876;12.300;2023-06-26T05:41:16;7.07;;;6.37;;
3726;SDS011;1879;45.876;12.300;2023-06-26T05:43:45;8.30;;;6.67;;
3726;SDS011;1879;45.876;12.300;2023-06-26T05:46:12;8.47;;;6.23;;
3726;SDS011;1879;45.876;12.300;2023-06-26T05:48:39;7.37;;;6.07;;
3726;SDS011;1879;45.876;12.300;2023-06-26T05:51:07;7.50;;;6.80;;
3726;SDS011;1879;45.876;12.300;2023-06-26T05:53:35;7.43;;;6.50;;
3726;SDS011;1879;45.876;12.300;2023-06-26T05:56:02;6.10;;;5.50;;
3726;SDS011;1879;45.876;12.300;2023-06-26T05:58:29;6.97;;;6.30;;
3726;SDS011;1879;45.876;12.300;2023-06-26T06:00:58;7.70;;;7.00;;
3726;SDS011;1879;45.876;12.300;2023-06-26T06:03:25;7.07;;;6.37;;
3726;SDS011;1879;45.876;12.300;2023-06-26T06:05:52;6.57;;;5.87;;
3726;SDS011;1879;45.876;12.300;2023-06-26T06:08:19;8.23;;;7.43;;
3726;SDS011;1879;45.876;12.300;2023-06-26T06:10:46;7.50;;;6.90;;
3726;SDS011;1879;45.876;12.300;2023-06-26T06:13:13;8.13;;;6.93;;
3726;SDS011;1879;45.876;12.300;2023-06-26T06:15:40;7.70;;;7.00;;
3726;SDS011;1879;45.876;12.300;2023-06-26T06:18:08;9.00;;;7.00;;
3726;SDS011;1879;45.876;12.300;2023-06-26T06:20:35;7.73;;;7.03;;
3726;SDS011;1879;45.876;12.300;2023-06-26T06:23:02;8.67;;;7.93;;
3726;SDS011;1879;45.876;12.300;2023-06-26T06:25:29;8.70;;;7.87;;
3726;SDS011;1879;45.876;12.300;2023-06-26T06:27:56;9.10;;;8.30;;
3726;SDS011;1879;45.876;12.300;2023-06-26T06:30:23;9.13;;;7.70;;
3726;SDS011;1879;45.876;12.300;2023-06-26T06:32:50;10.80;;;9.03;;
3726;SDS011;1879;45.876;12.300;2023-06-26T06:35:19;8.70;;;7.90;;
3726;SDS011;1879;45.876;12.300;2023-06-26T06:37:46;9.07;;;8.20;;
3726;SDS011;1879;45.876;12.300;2023-06-26T06:40:14;7.93;;;7.23;;
3726;SDS011;1879;45.876;12.300;2023-06-26T06:42:41;8.67;;;7.77;;
3726;SDS011;1879;45.876;12.300;2023-06-26T06:45:09;9.07;;;8.20;;
3726;SDS011;1879;45.876;12.300;2023-06-26T06:47:36;9.50;;;8.07;;
3726;SDS011;1879;45.876;12.300;2023-06-26T06:50:03;8.77;;;7.97;;
3726;SDS011;1879;45.876;12.300;2023-06-26T06:52:36;8.63;;;7.93;;
3726;SDS011;1879;45.876;12.300;2023-06-26T06:55:05;9.33;;;8.53;;
3726;SDS011;1879;45.876;12.300;2023-06-26T06:57:34;8.10;;;7.40;;
3726;SDS011;1879;45.876;12.300;2023-06-26T07:00:03;9.50;;;8.60;;
3726;SDS011;1879;45.876;12.300;2023-06-26T07:02:33;9.73;;;8.63;;
3726;SDS011;1879;45.876;12.300;2023-06-26T07:05:00;9.90;;;8.53;;
3726;SDS011;1879;45.876;12.300;2023-06-26T07:07:28;9.80;;;8.10;;
3726;SDS011;1879;45.876;12.300;2023-06-26T07:09:59;9.20;;;8.13;;
3726;SDS011;1879;45.876;12.300;2023-06-26T07:12:26;9.13;;;8.23;;
3726;SDS011;1879;45.876;12.300;2023-06-26T07:14:53;9.57;;;7.97;;
3726;SDS011;1879;45.876;12.300;2023-06-26T07:17:21;8.60;;;7.83;;
3726;SDS011;1879;45.876;12.300;2023-06-26T07:19:48;9.17;;;8.27;;
3726;SDS011;1879;45.876;12.300;2023-06-26T07:22:15;11.73;;;9.30;;
3726;SDS011;1879;45.876;12.300;2023-06-26T07:24:45;10.57;;;8.17;;
3726;SDS011;1879;45.876;12.300;2023-06-26T07:27:14;11.13;;;8.30;;
3726;SDS011;1879;45.876;12.300;2023-06-26T07:29:41;9.17;;;8.27;;
3726;SDS011;1879;45.876;12.300;2023-06-26T07:32:08;10.17;;;8.13;;
3726;SDS011;1879;45.876;12.300;2023-06-26T07:34:38;8.80;;;8.00;;
3726;SDS011;1879;45.876;12.300;2023-06-26T07:37:05;8.52;;;7.63;;
3726;SDS011;1879;45.876;12.300;2023-06-26T07:39:32;9.67;;;8.77;;
3726;SDS011;1879;45.876;12.300;2023-06-26T07:41:58;9.60;;;8.70;;
3726;SDS011;1879;45.876;12.300;2023-06-26T07:44:27;8.80;;;8.03;;
3726;SDS011;1879;45.876;12.300;2023-06-26T07:46:54;10.60;;;9.43;;
3726;SDS011;1879;45.876;12.300;2023-06-26T07:49:21;10.10;;;9.20;;
3726;SDS011;1879;45.876;12.300;2023-06-26T07:51:48;10.13;;;9.00;;
3726;SDS011;1879;45.876;12.300;2023-06-26T07:54:16;22.10;;;9.60;;
3726;SDS011;1879;45.876;12.300;2023-06-26T07:56:52;10.23;;;9.23;;
3726;SDS011;1879;45.876;12.300;2023-06-26T07:59:20;9.77;;;8.87;;
3726;SDS011;1879;45.876;12.300;2023-06-26T08:01:49;9.70;;;8.80;;
3726;SDS011;1879;45.876;12.300;2023-06-26T08:04:17;8.43;;;7.63;;
3726;SDS011;1879;45.876;12.300;2023-06-26T08:06:47;10.13;;;8.70;;
3726;SDS011;1879;45.876;12.300;2023-06-26T08:09:14;10.70;;;9.03;;
3726;SDS011;1879;45.876;12.300;2023-06-26T08:11:41;8.87;;;7.97;;
3726;SDS011;1879;45.876;12.300;2023-06-26T08:14:08;10.20;;;9.20;;
3726;SDS011;1879;45.876;12.300;2023-06-26T08:16:36;10.00;;;8.40;;
3726;SDS011;1879;45.876;12.300;2023-06-26T08:19:05;9.33;;;8.43;;
3726;SDS011;1879;45.876;12.300;2023-06-26T08:21:32;10.43;;;9.43;;
3726;SDS011;1879;45.876;12.300;2023-06-26T08:23:59;9.90;;;8.90;;
3726;SDS011;1879;45.876;12.300;2023-06-26T08:26:26;10.93;;;9.17;;
3726;SDS011;1879;45.876;12.300;2023-06-26T08:28:53;16.60;;;9.93;;
3726;SDS011;1879;45.876;12.300;2023-06-26T08:31:21;9.90;;;9.00;;
3726;SDS011;1879;45.876;12.300;2023-06-26T08:33:48;10.00;;;9.07;;
3726;SDS011;1879;45.876;12.300;2023-06-26T08:36:16;9.30;;;8.40;;
3726;SDS011;1879;45.876;12.300;2023-06-26T08:38:43;10.43;;;9.43;;
3726;SDS011;1879;45.876;12.300;2023-06-26T08:41:10;10.57;;;9.47;;
3726;SDS011;1879;45.876;12.300;2023-06-26T08:43:37;11.33;;;8.40;;
3726;SDS011;1879;45.876;12.300;2023-06-26T08:46:04;13.07;;;9.87;;
3726;SDS011;1879;45.876;12.300;2023-06-26T08:48:32;45.93;;;13.33;;
3726;SDS011;1879;45.876;12.300;2023-06-26T08:51:02;19.10;;;10.60;;
3726;SDS011;1879;45.876;12.300;2023-06-26T08:53:36;13.70;;;9.83;;
3726;SDS011;1879;45.876;12.300;2023-06-26T08:56:09;9.50;;;8.67;;
3726;SDS011;1879;45.876;12.300;2023-06-26T08:58:40;9.80;;;8.80;;
3726;SDS011;1879;45.876;12.300;2023-06-26T09:01:07;9.90;;;8.67;;
3726;SDS011;1879;45.876;12.300;2023-06-26T09:03:34;9.20;;;8.17;;
3726;SDS011;1879;45.876;12.300;2023-06-26T09:06:02;10.70;;;8.90;;
3726;SDS011;1879;45.876;12.300;2023-06-26T09:08:30;11.40;;;8.27;;
3726;SDS011;1879;45.876;12.300;2023-06-26T09:10:59;9.27;;;8.37;;
3726;SDS011;1879;45.876;12.300;2023-06-26T09:13:27;10.23;;;9.33;;
3726;SDS011;1879;45.876;12.300;2023-06-26T09:15:55;25.60;;;9.60;;
3726;SDS011;1879;45.876;12.300;2023-06-26T09:18:22;10.37;;;9.47;;
3726;SDS011;1879;45.876;12.300;2023-06-26T09:20:49;9.57;;;8.70;;
3726;SDS011;1879;45.876;12.300;2023-06-26T09:23:17;11.40;;;9.80;;
3726;SDS011;1879;45.876;12.300;2023-06-26T09:25:44;9.63;;;8.77;;
3726;SDS011;1879;45.876;12.300;2023-06-26T09:28:15;10.10;;;9.20;;
3726;SDS011;1879;45.876;12.300;2023-06-26T09:30:42;10.00;;;9.00;;
3726;SDS011;1879;45.876;12.300;2023-06-26T09:33:14;9.87;;;8.97;;
3726;SDS011;1879;45.876;12.300;2023-06-26T09:35:42;9.10;;;8.30;;
3726;SDS011;1879;45.876;12.300;2023-06-26T09:38:10;10.20;;;8.80;;
3726;SDS011;1879;45.876;12.300;2023-06-26T09:40:37;9.77;;;8.80;;
3726;SDS011;1879;45.876;12.300;2023-06-26T09:43:05;8.80;;;8.00;;
3726;SDS011;1879;45.876;12.300;2023-06-26T09:45:33;12.63;;;9.03;;
3726;SDS011;1879;45.876;12.300;2023-06-26T09:48:01;10.03;;;9.07;;
3726;SDS011;1879;45.876;12.300;2023-06-26T09:50:29;10.60;;;8.83;;
3726;SDS011;1879;45.876;12.300;2023-06-26T09:52:59;10.10;;;9.10;;
3726;SDS011;1879;45.876;12.300;2023-06-26T09:55:34;9.30;;;7.97;;
3726;SDS011;1879;45.876;12.300;2023-06-26T09:58:02;7.60;;;6.90;;
3726;SDS011;1879;45.876;12.300;2023-06-26T10:00:30;9.03;;;8.10;;
3726;SDS011;1879;45.876;12.300;2023-06-26T10:02:58;9.00;;;8.20;;
3726;SDS011;1879;45.876;12.300;2023-06-26T10:05:25;8.37;;;7.57;;
3726;SDS011;1879;45.876;12.300;2023-06-26T10:07:53;9.07;;;8.13;;
3726;SDS011;1879;45.876;12.300;2023-06-26T10:10:21;8.53;;;7.57;;
3726;SDS011;1879;45.876;12.300;2023-06-26T10:12:51;9.80;;;8.70;;
3726;SDS011;1879;45.876;12.300;2023-06-26T10:15:24;11.60;;;8.43;;
3726;SDS011;1879;45.876;12.300;2023-06-26T10:17:54;8.33;;;7.63;;
3726;SDS011;1879;45.876;12.300;2023-06-26T10:20:24;7.50;;;6.80;;
3726;SDS011;1879;45.876;12.300;2023-06-26T10:22:52;8.40;;;6.93;;
3726;SDS011;1879;45.876;12.300;2023-06-26T10:25:24;8.23;;;6.97;;
3726;SDS011;1879;45.876;12.300;2023-06-26T10:27:52;10.00;;;8.33;;
3726;SDS011;1879;45.876;12.300;2023-06-26T10:30:22;9.23;;;8.33;;
3726;SDS011;1879;45.876;12.300;2023-06-26T10:32:53;8.37;;;7.57;;
3726;SDS011;1879;45.876;12.300;2023-06-26T10:35:21;8.50;;;7.70;;
3726;SDS011;1879;45.876;12.300;2023-06-26T10:37:51;7.90;;;7.30;;
3726;SDS011;1879;45.876;12.300;2023-06-26T10:40:21;7.93;;;7.17;;
3726;SDS011;1879;45.876;12.300;2023-06-26T10:42:51;8.33;;;7.37;;
3726;SDS011;1879;45.876;12.300;2023-06-26T10:45:33;7.47;;;6.77;;
3726;SDS011;1879;45.876;12.300;2023-06-26T10:48:00;10.10;;;8.00;;
3726;SDS011;1879;45.876;12.300;2023-06-26T10:50:29;8.13;;;7.43;;
3726;SDS011;1879;45.876;12.300;2023-06-26T10:53:11;11.83;;;7.73;;
3726;SDS011;1879;45.876;12.300;2023-06-26T10:55:41;11.43;;;8.13;;
3726;SDS011;1879;45.876;12.300;2023-06-26T11:03:47;8.73;;;7.93;;
3726;SDS011;1879;45.876;12.300;2023-06-26T11:06:19;8.83;;;7.93;;
3726;SDS011;1879;45.876;12.300;2023-06-26T11:08:47;9.23;;;8.43;;
3726;SDS011;1879;45.876;12.300;2023-06-26T11:11:19;8.90;;;8.00;;
3726;SDS011;1879;45.876;12.300;2023-06-26T11:13:46;8.87;;;7.97;;
3726;SDS011;1879;45.876;12.300;2023-06-26T11:16:14;8.43;;;7.63;;
3726;SDS011;1879;45.876;12.300;2023-06-26T11:18:42;8.53;;;7.83;;
3726;SDS011;1879;45.876;12.300;2023-06-26T11:21:11;8.57;;;7.77;;
3726;SDS011;1879;45.876;12.300;2023-06-26T11:23:43;7.80;;;7.00;;
3726;SDS011;1879;45.876;12.300;2023-06-26T11:26:18;9.80;;;7.90;;
3726;SDS011;1879;45.876;12.300;2023-06-26T11:28:48;8.90;;;7.70;;
3726;SDS011;1879;45.876;12.300;2023-06-26T11:31:25;8.70;;;7.90;;
3726;SDS011;1879;45.876;12.300;2023-06-26T11:33:55;7.10;;;6.50;;
3726;SDS011;1879;45.876;12.300;2023-06-26T11:36:23;6.67;;;5.67;;
3726;SDS011;1879;45.876;12.300;2023-06-26T11:38:56;7.73;;;6.97;;
3726;SDS011;1879;45.876;12.300;2023-06-26T11:41:25;8.03;;;7.27;;
3726;SDS011;1879;45.876;12.300;2023-06-26T11:43:53;9.20;;;6.20;;
3726;SDS011;1879;45.876;12.300;2023-06-26T11:46:20;7.80;;;6.47;;
3726;SDS011;1879;45.876;12.300;2023-06-26T11:48:48;7.40;;;6.73;;
3726;SDS011;1879;45.876;12.300;2023-06-26T11:51:16;8.20;;;7.33;;
3726;SDS011;1879;45.876;12.300;2023-06-26T11:53:43;8.00;;;7.20;;
3726;SDS011;1879;45.876;12.300;2023-06-26T11:56:13;7.37;;;6.67;;
3726;SDS011;1879;45.876;12.300;2023-06-26T11:58:57;7.60;;;6.70;;
3726;SDS011;1879;45.876;12.300;2023-06-26T12:01:30;9.70;;;6.70;;
3726;SDS011;1879;45.876;12.300;2023-06-26T12:04:00;6.83;;;6.20;;
3726;SDS011;1879;45.876;12.300;2023-06-26T12:06:28;7.40;;;6.73;;
3726;SDS011;1879;45.876;12.300;2023-06-26T12:08:57;6.90;;;6.30;;
3726;SDS011;1879;45.876;12.300;2023-06-26T12:11:27;6.50;;;6.00;;
3726;SDS011;1879;45.876;12.300;2023-06-26T12:13:55;7.50;;;6.77;;
3726;SDS011;1879;45.876;12.300;2023-06-26T12:16:23;8.67;;;6.97;;
3726;SDS011;1879;45.876;12.300;2023-06-26T12:18:50;7.90;;;7.20;;
3726;SDS011;1879;45.876;12.300;2023-06-26T12:24:18;12.20;;;7.13;;
3726;SDS011;1879;45.876;12.300;2023-06-26T12:26:49;8.37;;;6.10;;
3726;SDS011;1879;45.876;12.300;2023-06-26T12:29:19;8.87;;;5.27;;
3726;SDS011;1879;45.876;12.300;2023-06-26T12:31:48;13.67;;;5.20;;
3726;SDS011;1879;45.876;12.300;2023-06-26T12:34:17;23.80;;;5.83;;
3726;SDS011;1879;45.876;12.300;2023-06-26T12:36:45;6.73;;;6.00;;
3726;SDS011;1879;45.876;12.300;2023-06-26T12:39:15;6.27;;;5.60;;
3726;SDS011;1879;45.876;12.300;2023-06-26T12:41:47;10.77;;;6.50;;
3726;SDS011;1879;45.876;12.300;2023-06-26T12:44:19;6.80;;;6.20;;
3726;SDS011;1879;45.876;12.300;2023-06-26T12:46:47;6.83;;;6.13;;
3726;SDS011;1879;45.876;12.300;2023-06-26T12:49:15;7.30;;;6.60;;
3726;SDS011;1879;45.876;12.300;2023-06-26T12:51:42;8.10;;;5.70;;
3726;SDS011;1879;45.876;12.300;2023-06-26T12:54:10;5.70;;;5.10;;
3726;SDS011;1879;45.876;12.300;2023-06-26T12:56:37;6.33;;;5.73;;
3726;SDS011;1879;45.876;12.300;2023-06-26T12:59:05;7.47;;;5.73;;
3726;SDS011;1879;45.876;12.300;2023-06-26T13:01:32;6.53;;;6.03;;
3726;SDS011;1879;45.876;12.300;2023-06-26T13:03:59;6.43;;;5.77;;
3726;SDS011;1879;45.876;12.300;2023-06-26T13:06:26;5.97;;;5.07;;
3726;SDS011;1879;45.876;12.300;2023-06-26T13:08:53;5.93;;;5.43;;
3726;SDS011;1879;45.876;12.300;2023-06-26T13:11:20;6.37;;;5.50;;
3726;SDS011;1879;45.876;12.300;2023-06-26T13:13:48;6.30;;;5.70;;
3726;SDS011;1879;45.876;12.300;2023-06-26T13:16:17;6.07;;;5.57;;
3726;SDS011;1879;45.876;12.300;2023-06-26T13:18:44;5.77;;;5.10;;
3726;SDS011;1879;45.876;12.300;2023-06-26T13:21:12;6.63;;;6.03;;
3726;SDS011;1879;45.876;12.300;2023-06-26T13:23:39;6.03;;;5.53;;
3726;SDS011;1879;45.876;12.300;2023-06-26T13:26:06;8.93;;;6.87;;
3726;SDS011;1879;45.876;12.300;2023-06-26T13:28:33;5.67;;;5.20;;
3726;SDS011;1879;45.876;12.300;2023-06-26T13:31:02;8.43;;;6.03;;
3726;SDS011;1879;45.876;12.300;2023-06-26T13:33:34;5.10;;;4.60;;
3726;SDS011;1879;45.876;12.300;2023-06-26T13:36:00;8.07;;;5.17;;
3726;SDS011;1879;45.876;12.300;2023-06-26T13:38:29;6.60;;;5.43;;
3726;SDS011;1879;45.876;12.300;2023-06-26T13:40:59;5.47;;;5.07;;
3726;SDS011;1879;45.876;12.300;2023-06-26T13:43:27;6.53;;;6.00;;
3726;SDS011;1879;45.876;12.300;2023-06-26T13:45:55;6.30;;;5.77;;
3726;SDS011;1879;45.876;12.300;2023-06-26T13:48:22;6.80;;;5.60;;
3726;SDS011;1879;45.876;12.300;2023-06-26T13:50:52;5.17;;;4.67;;
3726;SDS011;1879;45.876;12.300;2023-06-26T13:53:19;10.67;;;5.40;;
3726;SDS011;1879;45.876;12.300;2023-06-26T13:55:47;8.67;;;5.40;;
3726;SDS011;1879;45.876;12.300;2023-06-26T13:58:14;6.90;;;5.97;;
3726;SDS011;1879;45.876;12.300;2023-06-26T14:00:41;5.23;;;4.83;;
3726;SDS011;1879;45.876;12.300;2023-06-26T14:03:10;6.37;;;5.27;;
3726;SDS011;1879;45.876;12.300;2023-06-26T14:05:37;6.70;;;6.07;;
3726;SDS011;1879;45.876;12.300;2023-06-26T14:08:07;6.30;;;5.80;;
3726;SDS011;1879;45.876;12.300;2023-06-26T14:10:36;5.90;;;5.40;;
3726;SDS011;1879;45.876;12.300;2023-06-26T14:13:03;5.60;;;5.10;;
3726;SDS011;1879;45.876;12.300;2023-06-26T14:15:30;6.20;;;5.60;;
3726;SDS011;1879;45.876;12.300;2023-06-26T14:18:00;5.50;;;5.00;;
3726;SDS011;1879;45.876;12.300;2023-06-26T14:20:27;5.23;;;4.70;;
3726;SDS011;1879;45.876;12.300;2023-06-26T14:22:57;6.73;;;6.10;;
3726;SDS011;1879;45.876;12.300;2023-06-26T14:25:26;6.13;;;5.60;;
3726;SDS011;1879;45.876;12.300;2023-06-26T14:27:54;6.77;;;5.33;;
3726;SDS011;1879;45.876;12.300;2023-06-26T14:30:22;7.67;;;5.50;;
3726;SDS011;1879;45.876;12.300;2023-06-26T14:32:49;6.00;;;5.50;;
3726;SDS011;1879;45.876;12.300;2023-06-26T14:35:16;6.07;;;5.47;;
3726;SDS011;1879;45.876;12.300;2023-06-26T14:37:43;6.13;;;5.63;;
3726;SDS011;1879;45.876;12.300;2023-06-26T14:40:11;8.80;;;5.40;;
3726;SDS011;1879;45.876;12.300;2023-06-26T14:42:40;7.83;;;4.57;;
3726;SDS011;1879;45.876;12.300;2023-06-26T14:45:08;6.00;;;5.20;;
3726;SDS011;1879;45.876;12.300;2023-06-26T14:47:36;6.10;;;5.50;;
3726;SDS011;1879;45.876;12.300;2023-06-26T14:50:03;7.07;;;5.40;;
3726;SDS011;1879;45.876;12.300;2023-06-26T14:52:31;9.37;;;5.90;;
3726;SDS011;1879;45.876;12.300;2023-06-26T14:54:58;6.60;;;6.00;;
3726;SDS011;1879;45.876;12.300;2023-06-26T14:57:25;6.13;;;5.63;;
3726;SDS011;1879;45.876;12.300;2023-06-26T14:59:54;8.27;;;5.60;;
3726;SDS011;1879;45.876;12.300;2023-06-26T15:02:21;7.17;;;6.47;;
3726;SDS011;1879;45.876;12.300;2023-06-26T15:04:48;6.33;;;5.83;;
3726;SDS011;1879;45.876;12.300;2023-06-26T15:07:15;6.67;;;5.90;;
3726;SDS011;1879;45.876;12.300;2023-06-26T15:09:42;7.60;;;6.90;;
3726;SDS011;1879;45.876;12.300;2023-06-26T15:12:09;6.00;;;5.40;;
3726;SDS011;1879;45.876;12.300;2023-06-26T15:14:36;6.63;;;5.97;;